sensor_id;sensor_type;location;lat;lon;timestamp;temperature;humidity
47825;DHT22;33589;48.242;14.676;2023-09-18T00:01:40;21.00;98.40
47825;DHT22;33589;48.242;14.676;2023-09-18T00:04:06;21.10;98.20
47825;DHT22;33589;48.242;14.676;2023-09-18T00:06:32;21.00;98.30
47825;DHT22;33589;48.242;14.676;2023-09-18T00:08:58;21.10;98.40
47825;DHT22;33589;48.242;14.676;2023-09-18T00:11:24;21.00;98.50
47825;DHT22;33589;48.242;14.676;2023-09-18T00:13:50;20.80;99.10
47825;DHT22;33589;48.242;14.676;2023-09-18T00:16:15;20.80;99.40
47825;DHT22;33589;48.242;14.676;2023-09-18T00:18:41;20.70;99.50
47825;DHT22;33589;48.242;14.676;2023-09-18T00:21:08;20.80;99.50
47825;DHT22;33589;48.242;14.676;2023-09-18T00:23:36;21.00;98.50
47825;DHT22;33589;48.242;14.676;2023-09-18T00:26:02;21.10;98.00
47825;DHT22;33589;48.242;14.676;2023-09-18T00:28:27;21.30;97.40
47825;DHT22;33589;48.242;14.676;2023-09-18T00:30:53;21.30;96.50
47825;DHT22;33589;48.242;14.676;2023-09-18T00:33:19;21.30;96.20
47825;DHT22;33589;48.242;14.676;2023-09-18T00:35:49;21.50;96.00
47825;DHT22;33589;48.242;14.676;2023-09-18T00:38:15;21.40;96.10
47825;DHT22;33589;48.242;14.676;2023-09-18T00:40:41;21.50;96.50
47825;DHT22;33589;48.242;14.676;2023-09-18T00:43:07;21.30;96.90
47825;DHT22;33589;48.242;14.676;2023-09-18T00:45:34;21.20;97.50
47825;DHT22;33589;48.242;14.676;2023-09-18T00:48:00;21.30;97.30
47825;DHT22;33589;48.242;14.676;2023-09-18T00:50:27;21.30;97.40
47825;DHT22;33589;48.242;14.676;2023-09-18T00:52:53;21.30;96.70
47825;DHT22;33589;48.242;14.676;2023-09-18T00:55:19;21.20;96.40
47825;DHT22;33589;48.242;14.676;2023-09-18T00:57:45;21.00;98.10
47825;DHT22;33589;48.242;14.676;2023-09-18T01:00:12;21.00;98.20
47825;DHT22;33589;48.242;14.676;2023-09-18T01:02:43;21.00;98.20
47825;DHT22;33589;48.242;14.676;2023-09-18T01:05:08;21.10;98.00
47825;DHT22;33589;48.242;14.676;2023-09-18T01:07:34;21.20;98.30
47825;DHT22;33589;48.242;14.676;2023-09-18T01:10:00;21.20;98.20
47825;DHT22;33589;48.242;14.676;2023-09-18T01:12:38;21.40;97.30
47825;DHT22;33589;48.242;14.676;2023-09-18T01:15:21;21.40;97.30
47825;DHT22;33589;48.242;14.676;2023-09-18T01:17:49;21.50;96.80
47825;DHT22;33589;48.242;14.676;2023-09-18T01:20:15;21.50;97.50
47825;DHT22;33589;48.242;14.676;2023-09-18T01:22:41;21.40;98.00
47825;DHT22;33589;48.242;14.676;2023-09-18T01:25:07;21.10;99.40
47825;DHT22;33589;48.242;14.676;2023-09-18T01:27:33;20.90;99.90
47825;DHT22;33589;48.242;14.676;2023-09-18T01:29:59;20.90;99.90
47825;DHT22;33589;48.242;14.676;2023-09-18T01:32:27;21.00;99.90
47825;DHT22;33589;48.242;14.676;2023-09-18T01:34:56;21.10;99.40
47825;DHT22;33589;48.242;14.676;2023-09-18T01:37:25;21.20;99.30
47825;DHT22;33589;48.242;14.676;2023-09-18T01:39:52;21.30;99.40
47825;DHT22;33589;48.242;14.676;2023-09-18T01:42:19;21.30;99.30
47825;DHT22;33589;48.242;14.676;2023-09-18T01:44:47;21.30;99.90
47825;DHT22;33589;48.242;14.676;2023-09-18T01:47:16;21.30;99.90
47825;DHT22;33589;48.242;14.676;2023-09-18T01:49:43;21.20;99.90
47825;DHT22;33589;48.242;14.676;2023-09-18T01:52:09;21.30;99.90
47825;DHT22;33589;48.242;14.676;2023-09-18T01:54:35;21.30;99.90
47825;DHT22;33589;48.242;14.676;2023-09-18T01:57:02;21.20;99.90
47825;DHT22;33589;48.242;14.676;2023-09-18T01:59:28;21.20;99.90
47825;DHT22;33589;48.242;14.676;2023-09-18T02:01:54;21.20;99.90
47825;DHT22;33589;48.242;14.676;2023-09-18T02:04:21;21.20;99.90
47825;DHT22;33589;48.242;14.676;2023-09-18T02:06:50;21.30;99.90
47825;DHT22;33589;48.242;14.676;2023-09-18T02:09:16;21.20;99.90
47825;DHT22;33589;48.242;14.676;2023-09-18T02:11:43;21.10;99.90
47825;DHT22;33589;48.242;14.676;2023-09-18T02:14:10;21.10;99.90
47825;DHT22;33589;48.242;14.676;2023-09-18T02:16:41;21.00;99.90
47825;DHT22;33589;48.242;14.676;2023-09-18T02:19:07;21.10;99.90
47825;DHT22;33589;48.242;14.676;2023-09-18T02:21:34;21.20;99.90
47825;DHT22;33589;48.242;14.676;2023-09-18T02:24:00;21.40;99.90
47825;DHT22;33589;48.242;14.676;2023-09-18T02:26:25;21.50;99.90
47825;DHT22;33589;48.242;14.676;2023-09-18T02:29:02;21.40;99.90
47825;DHT22;33589;48.242;14.676;2023-09-18T02:31:29;21.40;99.90
47825;DHT22;33589;48.242;14.676;2023-09-18T02:33:55;21.40;99.90
47825;DHT22;33589;48.242;14.676;2023-09-18T02:36:21;21.40;99.90
47825;DHT22;33589;48.242;14.676;2023-09-18T02:38:48;21.40;99.90
47825;DHT22;33589;48.242;14.676;2023-09-18T02:41:14;21.30;99.90
47825;DHT22;33589;48.242;14.676;2023-09-18T02:43:39;21.30;99.90
47825;DHT22;33589;48.242;14.676;2023-09-18T02:46:06;21.00;99.90
47825;DHT22;33589;48.242;14.676;2023-09-18T02:48:32;21.00;99.90
47825;DHT22;33589;48.242;14.676;2023-09-18T02:51:01;21.00;99.90
47825;DHT22;33589;48.242;14.676;2023-09-18T02:53:27;21.00;99.90
47825;DHT22;33589;48.242;14.676;2023-09-18T02:55:58;21.20;99.90
47825;DHT22;33589;48.242;14.676;2023-09-18T02:58:25;21.30;99.90
47825;DHT22;33589;48.242;14.676;2023-09-18T03:00:52;21.20;99.90
47825;DHT22;33589;48.242;14.676;2023-09-18T03:03:19;21.00;99.90
47825;DHT22;33589;48.242;14.676;2023-09-18T03:05:45;21.10;99.90
47825;DHT22;33589;48.242;14.676;2023-09-18T03:08:14;21.20;99.90
47825;DHT22;33589;48.242;14.676;2023-09-18T03:10:42;21.30;99.90
47825;DHT22;33589;48.242;14.676;2023-09-18T03:13:09;21.30;99.90
47825;DHT22;33589;48.242;14.676;2023-09-18T03:15:35;21.40;99.90
47825;DHT22;33589;48.242;14.676;2023-09-18T03:18:03;21.30;99.90
47825;DHT22;33589;48.242;14.676;2023-09-18T03:20:30;21.20;99.90
47825;DHT22;33589;48.242;14.676;2023-09-18T03:23:01;21.20;99.90
47825;DHT22;33589;48.242;14.676;2023-09-18T03:25:27;21.40;99.90
47825;DHT22;33589;48.242;14.676;2023-09-18T03:27:54;21.30;99.90
47825;DHT22;33589;48.242;14.676;2023-09-18T03:30:22;21.20;99.90
47825;DHT22;33589;48.242;14.676;2023-09-18T03:32:52;21.10;99.90
47825;DHT22;33589;48.242;14.676;2023-09-18T03:35:19;21.00;99.90
47825;DHT22;33589;48.242;14.676;2023-09-18T03:37:46;21.10;99.90
47825;DHT22;33589;48.242;14.676;2023-09-18T03:40:13;21.10;99.90
47825;DHT22;33589;48.242;14.676;2023-09-18T03:42:38;21.10;99.90
47825;DHT22;33589;48.242;14.676;2023-09-18T03:45:08;21.10;99.90
47825;DHT22;33589;48.242;14.676;2023-09-18T03:47:35;21.00;99.90
47825;DHT22;33589;48.242;14.676;2023-09-18T03:50:05;20.90;99.90
47825;DHT22;33589;48.242;14.676;2023-09-18T03:52:31;21.00;99.90
47825;DHT22;33589;48.242;14.676;2023-09-18T03:54:56;21.20;99.90
47825;DHT22;33589;48.242;14.676;2023-09-18T03:57:22;21.10;99.90
47825;DHT22;33589;48.242;14.676;2023-09-18T03:59:47;21.00;99.90
47825;DHT22;33589;48.242;14.676;2023-09-18T04:02:13;21.20;99.90
47825;DHT22;33589;48.242;14.676;2023-09-18T04:04:39;21.00;99.90
47825;DHT22;33589;48.242;14.676;2023-09-18T04:07:08;20.80;99.90
47825;DHT22;33589;48.242;14.676;2023-09-18T04:09:34;20.80;99.90
47825;DHT22;33589;48.242;14.676;2023-09-18T04:12:03;20.70;99.90
47825;DHT22;33589;48.242;14.676;2023-09-18T04:14:31;20.50;99.90
47825;DHT22;33589;48.242;14.676;2023-09-18T04:16:57;20.50;99.90
47825;DHT22;33589;48.242;14.676;2023-09-18T04:19:23;20.60;99.90
47825;DHT22;33589;48.242;14.676;2023-09-18T04:21:49;20.70;99.90
47825;DHT22;33589;48.242;14.676;2023-09-18T04:24:14;20.70;99.90
47825;DHT22;33589;48.242;14.676;2023-09-18T04:26:40;20.80;99.90
47825;DHT22;33589;48.242;14.676;2023-09-18T04:29:06;20.60;99.90
47825;DHT22;33589;48.242;14.676;2023-09-18T04:31:32;20.30;99.90
47825;DHT22;33589;48.242;14.676;2023-09-18T04:33:58;20.20;99.90
47825;DHT22;33589;48.242;14.676;2023-09-18T04:36:24;20.00;99.90
47825;DHT22;33589;48.242;14.676;2023-09-18T04:38:50;20.10;99.90
47825;DHT22;33589;48.242;14.676;2023-09-18T04:41:16;20.20;99.90
47825;DHT22;33589;48.242;14.676;2023-09-18T04:43:42;20.20;99.90
47825;DHT22;33589;48.242;14.676;2023-09-18T04:46:08;20.10;99.90
47825;DHT22;33589;48.242;14.676;2023-09-18T04:48:34;20.10;98.10
47825;DHT22;33589;48.242;14.676;2023-09-18T04:51:01;19.90;97.30
47825;DHT22;33589;48.242;14.676;2023-09-18T04:53:29;19.70;95.10
47825;DHT22;33589;48.242;14.676;2023-09-18T04:55:55;19.80;96.70
47825;DHT22;33589;48.242;14.676;2023-09-18T04:58:21;19.50;96.00
47825;DHT22;33589;48.242;14.676;2023-09-18T05:00:56;19.50;96.70
47825;DHT22;33589;48.242;14.676;2023-09-18T05:03:23;19.50;98.10
47825;DHT22;33589;48.242;14.676;2023-09-18T05:05:49;19.30;98.50
47825;DHT22;33589;48.242;14.676;2023-09-18T05:08:15;19.30;98.50
47825;DHT22;33589;48.242;14.676;2023-09-18T05:10:41;19.30;99.90
47825;DHT22;33589;48.242;14.676;2023-09-18T05:13:06;19.30;99.70
47825;DHT22;33589;48.242;14.676;2023-09-18T05:15:32;19.60;99.90
47825;DHT22;33589;48.242;14.676;2023-09-18T05:17:59;19.60;99.90
47825;DHT22;33589;48.242;14.676;2023-09-18T05:20:27;19.50;99.90
47825;DHT22;33589;48.242;14.676;2023-09-18T05:22:54;19.50;99.90
47825;DHT22;33589;48.242;14.676;2023-09-18T07:26:54;19.10;99.90
47825;DHT22;33589;48.242;14.676;2023-09-18T07:29:20;19.30;99.90
47825;DHT22;33589;48.242;14.676;2023-09-18T07:31:46;19.30;99.90
47825;DHT22;33589;48.242;14.676;2023-09-18T07:34:13;19.30;99.90
47825;DHT22;33589;48.242;14.676;2023-09-18T07:36:39;19.10;99.90
47825;DHT22;33589;48.242;14.676;2023-09-18T07:39:05;19.00;99.90
47825;DHT22;33589;48.242;14.676;2023-09-18T07:41:32;18.90;99.90
47825;DHT22;33589;48.242;14.676;2023-09-18T07:43:57;18.90;99.90
47825;DHT22;33589;48.242;14.676;2023-09-18T07:46:24;18.80;99.90
47825;DHT22;33589;48.242;14.676;2023-09-18T07:48:50;18.80;99.90
47825;DHT22;33589;48.242;14.676;2023-09-18T07:51:16;18.90;99.90
47825;DHT22;33589;48.242;14.676;2023-09-18T07:53:42;18.80;99.90
47825;DHT22;33589;48.242;14.676;2023-09-18T07:56:08;18.60;99.90
47825;DHT22;33589;48.242;14.676;2023-09-18T07:58:34;18.70;99.90
47825;DHT22;33589;48.242;14.676;2023-09-18T08:01:07;18.90;99.90
47825;DHT22;33589;48.242;14.676;2023-09-18T08:03:34;18.80;99.90
47825;DHT22;33589;48.242;14.676;2023-09-18T08:06:00;18.90;99.90
47825;DHT22;33589;48.242;14.676;2023-09-18T08:08:26;18.80;99.90
47825;DHT22;33589;48.242;14.676;2023-09-18T08:10:52;18.90;99.90
47825;DHT22;33589;48.242;14.676;2023-09-18T08:13:18;18.70;99.90
47825;DHT22;33589;48.242;14.676;2023-09-18T08:15:45;18.70;99.90
47825;DHT22;33589;48.242;14.676;2023-09-18T08:18:12;18.80;99.90
47825;DHT22;33589;48.242;14.676;2023-09-18T08:20:42;18.60;99.90
47825;DHT22;33589;48.242;14.676;2023-09-18T08:23:11;18.80;99.90
47825;DHT22;33589;48.242;14.676;2023-09-18T08:25:38;18.90;99.90
47825;DHT22;33589;48.242;14.676;2023-09-18T08:28:05;19.00;99.90
47825;DHT22;33589;48.242;14.676;2023-09-18T08:30:32;19.10;99.90
47825;DHT22;33589;48.242;14.676;2023-09-18T08:32:58;19.10;99.90
47825;DHT22;33589;48.242;14.676;2023-09-18T08:35:23;18.80;99.90
47825;DHT22;33589;48.242;14.676;2023-09-18T08:37:53;18.80;99.90
47825;DHT22;33589;48.242;14.676;2023-09-18T08:40:19;18.80;99.90
47825;DHT22;33589;48.242;14.676;2023-09-18T08:42:46;18.90;99.90
47825;DHT22;33589;48.242;14.676;2023-09-18T08:45:19;19.00;99.90
47825;DHT22;33589;48.242;14.676;2023-09-18T08:47:46;18.90;99.90
47825;DHT22;33589;48.242;14.676;2023-09-18T08:50:13;19.20;99.90
47825;DHT22;33589;48.242;14.676;2023-09-18T08:52:41;19.10;99.90
47825;DHT22;33589;48.242;14.676;2023-09-18T08:55:07;19.00;99.90
47825;DHT22;33589;48.242;14.676;2023-09-18T08:57:34;18.70;99.90
47825;DHT22;33589;48.242;14.676;2023-09-18T09:00:01;18.50;99.90
47825;DHT22;33589;48.242;14.676;2023-09-18T09:02:33;18.20;99.90
47825;DHT22;33589;48.242;14.676;2023-09-18T09:04:58;18.00;99.90
47825;DHT22;33589;48.242;14.676;2023-09-18T09:07:25;18.20;99.90
47825;DHT22;33589;48.242;14.676;2023-09-18T09:09:51;18.30;99.90
47825;DHT22;33589;48.242;14.676;2023-09-18T09:15:15;18.60;99.90
47825;DHT22;33589;48.242;14.676;2023-09-18T09:17:42;18.80;99.90
47825;DHT22;33589;48.242;14.676;2023-09-18T09:20:09;19.00;99.90
47825;DHT22;33589;48.242;14.676;2023-09-18T09:22:39;18.90;99.90
47825;DHT22;33589;48.242;14.676;2023-09-18T09:25:27;18.90;99.90
47825;DHT22;33589;48.242;14.676;2023-09-18T09:28:06;18.70;99.90
47825;DHT22;33589;48.242;14.676;2023-09-18T09:30:33;18.60;99.90
47825;DHT22;33589;48.242;14.676;2023-09-18T09:32:59;18.60;99.90
47825;DHT22;33589;48.242;14.676;2023-09-18T09:35:36;18.80;99.90
47825;DHT22;33589;48.242;14.676;2023-09-18T09:38:08;18.80;99.90
47825;DHT22;33589;48.242;14.676;2023-09-18T09:40:34;18.80;99.90
47825;DHT22;33589;48.242;14.676;2023-09-18T09:43:00;18.90;99.90
47825;DHT22;33589;48.242;14.676;2023-09-18T09:45:29;19.00;99.90
47825;DHT22;33589;48.242;14.676;2023-09-18T09:47:56;19.00;99.90
47825;DHT22;33589;48.242;14.676;2023-09-18T09:50:23;18.90;99.90
47825;DHT22;33589;48.242;14.676;2023-09-18T09:52:51;18.80;99.90
47825;DHT22;33589;48.242;14.676;2023-09-18T09:57:48;19.00;99.90
47825;DHT22;33589;48.242;14.676;2023-09-18T10:00:16;19.20;99.90
47825;DHT22;33589;48.242;14.676;2023-09-18T10:02:57;19.20;99.90
47825;DHT22;33589;48.242;14.676;2023-09-18T10:05:27;18.90;99.90
47825;DHT22;33589;48.242;14.676;2023-09-18T10:07:54;19.00;99.90
47825;DHT22;33589;48.242;14.676;2023-09-18T10:10:26;19.10;99.90
47825;DHT22;33589;48.242;14.676;2023-09-18T10:12:55;19.10;99.90
47825;DHT22;33589;48.242;14.676;2023-09-18T10:15:23;19.20;99.90
47825;DHT22;33589;48.242;14.676;2023-09-18T10:17:51;19.20;99.90
47825;DHT22;33589;48.242;14.676;2023-09-18T10:20:17;19.30;99.90
47825;DHT22;33589;48.242;14.676;2023-09-18T10:22:49;19.40;99.90
47825;DHT22;33589;48.242;14.676;2023-09-18T10:25:28;19.30;99.90
47825;DHT22;33589;48.242;14.676;2023-09-18T10:27:55;19.10;99.90
47825;DHT22;33589;48.242;14.676;2023-09-18T10:30:27;18.80;99.90
47825;DHT22;33589;48.242;14.676;2023-09-18T10:32:56;18.70;99.90
47825;DHT22;33589;48.242;14.676;2023-09-18T10:35:23;18.80;99.90
47825;DHT22;33589;48.242;14.676;2023-09-18T10:37:49;18.90;99.90
47825;DHT22;33589;48.242;14.676;2023-09-18T10:40:20;18.90;99.90
47825;DHT22;33589;48.242;14.676;2023-09-18T10:42:46;18.70;99.90
47825;DHT22;33589;48.242;14.676;2023-09-18T10:45:13;19.00;99.90
47825;DHT22;33589;48.242;14.676;2023-09-18T10:47:43;18.90;99.90
47825;DHT22;33589;48.242;14.676;2023-09-18T10:50:12;19.00;99.90
47825;DHT22;33589;48.242;14.676;2023-09-18T10:52:47;18.90;99.90
47825;DHT22;33589;48.242;14.676;2023-09-18T10:55:13;19.10;99.90
47825;DHT22;33589;48.242;14.676;2023-09-18T11:00:23;19.20;99.90
47825;DHT22;33589;48.242;14.676;2023-09-18T11:05:38;19.20;99.90
47825;DHT22;33589;48.242;14.676;2023-09-18T11:08:29;19.00;99.90
47825;DHT22;33589;48.242;14.676;2023-09-18T11:11:09;19.00;99.90
47825;DHT22;33589;48.242;14.676;2023-09-18T11:13:45;18.70;99.90
47825;DHT22;33589;48.242;14.676;2023-09-18T11:21:25;18.80;99.90
47825;DHT22;33589;48.242;14.676;2023-09-18T11:24:01;18.80;99.90
47825;DHT22;33589;48.242;14.676;2023-09-18T11:26:34;18.80;99.90
47825;DHT22;33589;48.242;14.676;2023-09-18T11:29:04;18.90;99.90
47825;DHT22;33589;48.242;14.676;2023-09-18T11:31:51;19.00;99.90
47825;DHT22;33589;48.242;14.676;2023-09-18T11:34:22;19.10;99.90
47825;DHT22;33589;48.242;14.676;2023-09-18T11:36:48;19.10;99.90
47825;DHT22;33589;48.242;14.676;2023-09-18T11:39:41;18.90;99.90
47825;DHT22;33589;48.242;14.676;2023-09-18T11:42:19;18.90;99.90
47825;DHT22;33589;48.242;14.676;2023-09-18T11:44:49;19.10;99.90
47825;DHT22;33589;48.242;14.676;2023-09-18T11:47:19;19.10;99.90
47825;DHT22;33589;48.242;14.676;2023-09-18T11:49:55;19.20;99.90
47825;DHT22;33589;48.242;14.676;2023-09-18T11:52:27;19.30;99.90
47825;DHT22;33589;48.242;14.676;2023-09-18T11:54:57;19.30;99.90
47825;DHT22;33589;48.242;14.676;2023-09-18T11:57:23;19.30;99.90
47825;DHT22;33589;48.242;14.676;2023-09-18T11:59:49;19.40;99.90
47825;DHT22;33589;48.242;14.676;2023-09-18T12:02:29;19.10;99.90
47825;DHT22;33589;48.242;14.676;2023-09-18T12:05:11;18.70;99.90
47825;DHT22;33589;48.242;14.676;2023-09-18T12:07:40;18.80;99.90
47825;DHT22;33589;48.242;14.676;2023-09-18T12:10:09;18.80;99.90
47825;DHT22;33589;48.242;14.676;2023-09-18T12:12:35;18.90;99.90
47825;DHT22;33589;48.242;14.676;2023-09-18T12:15:01;19.00;99.90
47825;DHT22;33589;48.242;14.676;2023-09-18T12:17:28;19.10;99.90
47825;DHT22;33589;48.242;14.676;2023-09-18T12:19:55;19.40;99.90
47825;DHT22;33589;48.242;14.676;2023-09-18T12:22:28;19.60;99.90
47825;DHT22;33589;48.242;14.676;2023-09-18T12:25:08;19.70;99.90
47825;DHT22;33589;48.242;14.676;2023-09-18T12:27:36;19.80;99.90
47825;DHT22;33589;48.242;14.676;2023-09-18T12:30:03;19.90;99.90
47825;DHT22;33589;48.242;14.676;2023-09-18T12:32:30;19.80;99.90
47825;DHT22;33589;48.242;14.676;2023-09-18T12:34:58;19.70;99.90
47825;DHT22;33589;48.242;14.676;2023-09-18T12:37:24;19.80;99.90
47825;DHT22;33589;48.242;14.676;2023-09-18T12:39:50;19.60;99.90
47825;DHT22;33589;48.242;14.676;2023-09-18T12:42:20;19.60;99.90
47825;DHT22;33589;48.242;14.676;2023-09-18T12:44:47;19.70;99.90
47825;DHT22;33589;48.242;14.676;2023-09-18T12:47:14;19.60;99.90
47825;DHT22;33589;48.242;14.676;2023-09-18T12:49:40;19.60;99.90
47825;DHT22;33589;48.242;14.676;2023-09-18T12:52:06;19.60;99.90
47825;DHT22;33589;48.242;14.676;2023-09-18T12:54:45;19.70;99.90
47825;DHT22;33589;48.242;14.676;2023-09-18T12:57:20;19.70;99.90
47825;DHT22;33589;48.242;14.676;2023-09-18T12:59:45;19.60;99.90
47825;DHT22;33589;48.242;14.676;2023-09-18T13:02:17;19.40;99.90
47825;DHT22;33589;48.242;14.676;2023-09-18T13:04:54;19.30;99.90
47825;DHT22;33589;48.242;14.676;2023-09-18T13:07:21;19.30;99.90
47825;DHT22;33589;48.242;14.676;2023-09-18T13:10:02;19.50;99.90
47825;DHT22;33589;48.242;14.676;2023-09-18T13:12:45;19.60;99.90
47825;DHT22;33589;48.242;14.676;2023-09-18T13:15:11;19.70;99.90
47825;DHT22;33589;48.242;14.676;2023-09-18T13:17:39;19.90;99.90
47825;DHT22;33589;48.242;14.676;2023-09-18T13:20:22;19.70;99.90
47825;DHT22;33589;48.242;14.676;2023-09-18T13:22:54;20.00;99.90
47825;DHT22;33589;48.242;14.676;2023-09-18T13:25:21;20.40;99.90
47825;DHT22;33589;48.242;14.676;2023-09-18T13:27:48;20.70;99.90
47825;DHT22;33589;48.242;14.676;2023-09-18T13:30:15;20.60;99.90
47825;DHT22;33589;48.242;14.676;2023-09-18T13:32:43;20.80;99.90
47825;DHT22;33589;48.242;14.676;2023-09-18T13:35:18;20.90;99.90
47825;DHT22;33589;48.242;14.676;2023-09-18T13:37:44;20.70;99.90
47825;DHT22;33589;48.242;14.676;2023-09-18T13:40:10;20.90;99.90
47825;DHT22;33589;48.242;14.676;2023-09-18T13:42:37;20.70;99.90
47825;DHT22;33589;48.242;14.676;2023-09-18T13:45:04;20.50;99.90
47825;DHT22;33589;48.242;14.676;2023-09-18T13:47:32;20.50;99.90
47825;DHT22;33589;48.242;14.676;2023-09-18T13:49:59;20.50;99.90
47825;DHT22;33589;48.242;14.676;2023-09-18T13:52:32;20.40;99.90
47825;DHT22;33589;48.242;14.676;2023-09-18T13:54:59;20.20;99.90
47825;DHT22;33589;48.242;14.676;2023-09-18T13:57:25;20.30;99.90
47825;DHT22;33589;48.242;14.676;2023-09-18T13:59:51;20.40;99.90
47825;DHT22;33589;48.242;14.676;2023-09-18T14:02:18;20.60;99.90
47825;DHT22;33589;48.242;14.676;2023-09-18T14:04:44;20.40;99.90
47825;DHT22;33589;48.242;14.676;2023-09-18T14:07:11;20.50;99.90
47825;DHT22;33589;48.242;14.676;2023-09-18T14:09:37;20.70;99.90
47825;DHT22;33589;48.242;14.676;2023-09-18T14:12:04;20.70;99.90
47825;DHT22;33589;48.242;14.676;2023-09-18T14:14:32;20.60;99.90
47825;DHT22;33589;48.242;14.676;2023-09-18T14:16:58;20.70;99.90
47825;DHT22;33589;48.242;14.676;2023-09-18T14:19:24;21.00;99.90
47825;DHT22;33589;48.242;14.676;2023-09-18T14:21:51;21.30;99.90
47825;DHT22;33589;48.242;14.676;2023-09-18T14:24:17;21.40;99.90
47825;DHT22;33589;48.242;14.676;2023-09-18T14:26:51;21.60;99.90
47825;DHT22;33589;48.242;14.676;2023-09-18T14:29:16;21.50;99.90
47825;DHT22;33589;48.242;14.676;2023-09-18T14:31:42;21.80;99.90
47825;DHT22;33589;48.242;14.676;2023-09-18T14:34:09;22.20;99.90
47825;DHT22;33589;48.242;14.676;2023-09-18T14:36:35;22.50;99.90
47825;DHT22;33589;48.242;14.676;2023-09-18T14:39:01;22.50;99.10
47825;DHT22;33589;48.242;14.676;2023-09-18T14:41:27;22.50;98.50
47825;DHT22;33589;48.242;14.676;2023-09-18T14:43:53;22.70;98.00
47825;DHT22;33589;48.242;14.676;2023-09-18T14:46:19;22.50;98.80
47825;DHT22;33589;48.242;14.676;2023-09-18T14:48:45;22.80;97.60
47825;DHT22;33589;48.242;14.676;2023-09-18T14:51:11;22.80;97.00
47825;DHT22;33589;48.242;14.676;2023-09-18T14:53:37;22.50;96.20
47825;DHT22;33589;48.242;14.676;2023-09-18T14:56:03;22.10;95.40
47825;DHT22;33589;48.242;14.676;2023-09-18T14:58:39;21.80;97.50
47825;DHT22;33589;48.242;14.676;2023-09-18T15:01:05;22.10;97.10
47825;DHT22;33589;48.242;14.676;2023-09-18T15:03:32;22.10;96.50
47825;DHT22;33589;48.242;14.676;2023-09-18T15:05:57;22.20;97.90
47825;DHT22;33589;48.242;14.676;2023-09-18T15:08:23;22.30;97.00
47825;DHT22;33589;48.242;14.676;2023-09-18T15:10:49;22.30;96.10
47825;DHT22;33589;48.242;14.676;2023-09-18T15:13:14;22.10;96.10
47825;DHT22;33589;48.242;14.676;2023-09-18T15:15:41;22.20;95.90
47825;DHT22;33589;48.242;14.676;2023-09-18T15:18:08;22.10;95.20
47825;DHT22;33589;48.242;14.676;2023-09-18T15:20:34;22.30;95.20
47825;DHT22;33589;48.242;14.676;2023-09-18T15:23:00;22.30;94.00
47825;DHT22;33589;48.242;14.676;2023-09-18T15:25:26;22.00;94.30
47825;DHT22;33589;48.242;14.676;2023-09-18T15:27:52;22.10;92.90
47825;DHT22;33589;48.242;14.676;2023-09-18T15:30:17;22.10;92.90
47825;DHT22;33589;48.242;14.676;2023-09-18T15:32:51;22.10;92.50
47825;DHT22;33589;48.242;14.676;2023-09-18T15:35:25;22.00;92.30
47825;DHT22;33589;48.242;14.676;2023-09-18T15:37:52;22.10;92.60
47825;DHT22;33589;48.242;14.676;2023-09-18T15:40:19;22.10;91.50
47825;DHT22;33589;48.242;14.676;2023-09-18T15:42:46;21.70;92.60
47825;DHT22;33589;48.242;14.676;2023-09-18T15:45:13;21.80;92.30
47825;DHT22;33589;48.242;14.676;2023-09-18T15:47:42;21.90;92.20
47825;DHT22;33589;48.242;14.676;2023-09-18T15:50:09;22.00;92.20
47825;DHT22;33589;48.242;14.676;2023-09-18T15:52:35;22.00;91.60
47825;DHT22;33589;48.242;14.676;2023-09-18T15:55:02;21.90;92.40
47825;DHT22;33589;48.242;14.676;2023-09-18T15:57:34;22.00;91.40
47825;DHT22;33589;48.242;14.676;2023-09-18T16:00:04;21.90;91.20
47825;DHT22;33589;48.242;14.676;2023-09-18T16:02:40;21.70;91.00
47825;DHT22;33589;48.242;14.676;2023-09-18T16:05:07;21.70;91.90
47825;DHT22;33589;48.242;14.676;2023-09-18T16:07:34;21.60;92.40
47825;DHT22;33589;48.242;14.676;2023-09-18T16:10:05;21.50;91.50
47825;DHT22;33589;48.242;14.676;2023-09-18T16:12:32;21.20;91.10
47825;DHT22;33589;48.242;14.676;2023-09-18T16:14:59;21.10;92.00
47825;DHT22;33589;48.242;14.676;2023-09-18T16:17:25;21.00;92.20
47825;DHT22;33589;48.242;14.676;2023-09-18T16:19:51;20.90;93.30
47825;DHT22;33589;48.242;14.676;2023-09-18T16:22:17;20.80;92.80
47825;DHT22;33589;48.242;14.676;2023-09-18T16:24:43;20.90;93.20
47825;DHT22;33589;48.242;14.676;2023-09-18T16:27:09;20.90;92.60
47825;DHT22;33589;48.242;14.676;2023-09-18T16:29:37;20.90;92.70
47825;DHT22;33589;48.242;14.676;2023-09-18T16:32:03;20.70;92.80
47825;DHT22;33589;48.242;14.676;2023-09-18T16:34:29;20.70;93.30
47825;DHT22;33589;48.242;14.676;2023-09-18T16:36:55;20.70;93.70
47825;DHT22;33589;48.242;14.676;2023-09-18T16:39:20;20.70;94.00
47825;DHT22;33589;48.242;14.676;2023-09-18T16:41:49;20.70;94.10
47825;DHT22;33589;48.242;14.676;2023-09-18T16:44:14;20.80;94.00
47825;DHT22;33589;48.242;14.676;2023-09-18T16:46:59;20.70;93.60
47825;DHT22;33589;48.242;14.676;2023-09-18T16:49:25;20.80;93.90
47825;DHT22;33589;48.242;14.676;2023-09-18T16:51:51;20.60;93.70
47825;DHT22;33589;48.242;14.676;2023-09-18T16:54:18;20.60;94.10
47825;DHT22;33589;48.242;14.676;2023-09-18T16:56:47;20.60;94.20
47825;DHT22;33589;48.242;14.676;2023-09-18T16:59:12;20.60;93.80
47825;DHT22;33589;48.242;14.676;2023-09-18T17:01:38;20.60;94.00
47825;DHT22;33589;48.242;14.676;2023-09-18T17:04:04;20.50;94.40
47825;DHT22;33589;48.242;14.676;2023-09-18T17:06:30;20.50;94.60
47825;DHT22;33589;48.242;14.676;2023-09-18T17:09:01;20.30;94.70
47825;DHT22;33589;48.242;14.676;2023-09-18T17:11:30;20.20;95.50
47825;DHT22;33589;48.242;14.676;2023-09-18T17:13:56;20.10;96.10
47825;DHT22;33589;48.242;14.676;2023-09-18T17:16:23;20.10;96.20
47825;DHT22;33589;48.242;14.676;2023-09-18T17:18:50;20.10;96.40
47825;DHT22;33589;48.242;14.676;2023-09-18T17:21:24;20.00;97.10
47825;DHT22;33589;48.242;14.676;2023-09-18T17:23:50;20.00;97.50
47825;DHT22;33589;48.242;14.676;2023-09-18T17:26:16;19.90;97.50
47825;DHT22;33589;48.242;14.676;2023-09-18T17:28:42;20.00;97.40
47825;DHT22;33589;48.242;14.676;2023-09-18T17:31:07;19.70;97.40
47825;DHT22;33589;48.242;14.676;2023-09-18T17:33:34;19.70;98.30
47825;DHT22;33589;48.242;14.676;2023-09-18T17:36:00;19.60;98.10
47825;DHT22;33589;48.242;14.676;2023-09-18T17:38:25;19.60;98.10